Terminal Aerodrome Forecast
Issued by NWS Boston, MA

Home | Current Version | Previous Version | Text Only | Print | Product List | Glossary On
Versions: 1 2 3 4 5 6 7 8 9 10 11 12 13 14 15 16 17 18 19 20
000
FTUS41 KBOX 252321
TAFORH
TAF
KORH 252321Z 2600/2624 24007KT P6SM SCT080 BKN250
     FM260200 24007KT P6SM BKN060
     FM260600 26013G22KT P6SM SCT150
     FM261300 28016G26KT P6SM BKN050=

USA.gov is the U.S. government's official web portal to all federal, state and local government web resources and services.